sensor_id;sensor_type;location;lat;lon;timestamp;temperature;humidity
60868;DHT22;46702;48.370;10.794;2022-12-01T00:00:41;2.50;99.90
60868;DHT22;46702;48.370;10.794;2022-12-01T00:03:07;2.50;99.90
60868;DHT22;46702;48.370;10.794;2022-12-01T00:05:33;2.50;99.90
60868;DHT22;46702;48.370;10.794;2022-12-01T00:07:59;2.60;99.90
60868;DHT22;46702;48.370;10.794;2022-12-01T00:10:25;2.50;99.90
60868;DHT22;46702;48.370;10.794;2022-12-01T00:12:59;2.50;99.90
60868;DHT22;46702;48.370;10.794;2022-12-01T00:15:26;2.50;99.90
60868;DHT22;46702;48.370;10.794;2022-12-01T00:17:52;2.50;99.90
60868;DHT22;46702;48.370;10.794;2022-12-01T00:20:18;2.50;99.90
60868;DHT22;46702;48.370;10.794;2022-12-01T00:22:45;2.50;99.90
60868;DHT22;46702;48.370;10.794;2022-12-01T00:25:12;2.50;99.90
60868;DHT22;46702;48.370;10.794;2022-12-01T00:27:38;2.50;99.90
60868;DHT22;46702;48.370;10.794;2022-12-01T00:30:06;2.50;99.90
60868;DHT22;46702;48.370;10.794;2022-12-01T00:32:33;2.50;99.90
60868;DHT22;46702;48.370;10.794;2022-12-01T00:34:58;2.50;99.90
60868;DHT22;46702;48.370;10.794;2022-12-01T00:37:24;2.50;99.90
60868;DHT22;46702;48.370;10.794;2022-12-01T00:39:50;2.50;99.90
60868;DHT22;46702;48.370;10.794;2022-12-01T00:42:16;2.50;99.90
60868;DHT22;46702;48.370;10.794;2022-12-01T00:44:45;2.50;99.90
60868;DHT22;46702;48.370;10.794;2022-12-01T00:47:12;2.50;99.90
60868;DHT22;46702;48.370;10.794;2022-12-01T00:49:37;2.50;99.90
60868;DHT22;46702;48.370;10.794;2022-12-01T00:52:03;2.50;99.90
60868;DHT22;46702;48.370;10.794;2022-12-01T00:54:29;2.50;99.90
60868;DHT22;46702;48.370;10.794;2022-12-01T00:56:57;2.40;99.90
60868;DHT22;46702;48.370;10.794;2022-12-01T00:59:23;2.40;99.90
60868;DHT22;46702;48.370;10.794;2022-12-01T01:01:48;2.40;99.90
60868;DHT22;46702;48.370;10.794;2022-12-01T01:04:14;2.40;99.90
60868;DHT22;46702;48.370;10.794;2022-12-01T01:06:40;2.40;99.90
60868;DHT22;46702;48.370;10.794;2022-12-01T01:09:08;2.40;99.90
60868;DHT22;46702;48.370;10.794;2022-12-01T01:11:34;2.40;99.90
60868;DHT22;46702;48.370;10.794;2022-12-01T01:13:59;2.40;99.90
60868;DHT22;46702;48.370;10.794;2022-12-01T01:16:25;2.40;99.90
60868;DHT22;46702;48.370;10.794;2022-12-01T01:18:51;2.40;99.90
60868;DHT22;46702;48.370;10.794;2022-12-01T01:21:19;2.40;99.90
60868;DHT22;46702;48.370;10.794;2022-12-01T01:23:49;2.40;99.90
60868;DHT22;46702;48.370;10.794;2022-12-01T01:26:16;2.50;99.90
60868;DHT22;46702;48.370;10.794;2022-12-01T01:28:43;2.50;99.90
60868;DHT22;46702;48.370;10.794;2022-12-01T01:31:11;2.40;99.90
60868;DHT22;46702;48.370;10.794;2022-12-01T01:33:38;2.40;99.90
60868;DHT22;46702;48.370;10.794;2022-12-01T01:36:04;2.40;99.90
60868;DHT22;46702;48.370;10.794;2022-12-01T01:38:30;2.40;99.90
60868;DHT22;46702;48.370;10.794;2022-12-01T01:40:56;2.40;99.90
60868;DHT22;46702;48.370;10.794;2022-12-01T01:48:58;2.40;99.90
60868;DHT22;46702;48.370;10.794;2022-12-01T01:53:54;2.30;99.90
60868;DHT22;46702;48.370;10.794;2022-12-01T01:56:21;2.40;99.90
60868;DHT22;46702;48.370;10.794;2022-12-01T01:58:48;2.40;99.90
60868;DHT22;46702;48.370;10.794;2022-12-01T02:01:14;2.40;99.90
60868;DHT22;46702;48.370;10.794;2022-12-01T02:03:40;2.40;99.90
60868;DHT22;46702;48.370;10.794;2022-12-01T02:06:07;2.40;99.90
60868;DHT22;46702;48.370;10.794;2022-12-01T02:08:34;2.40;99.90
60868;DHT22;46702;48.370;10.794;2022-12-01T02:14:00;2.40;99.90
60868;DHT22;46702;48.370;10.794;2022-12-01T02:16:40;2.40;99.90
60868;DHT22;46702;48.370;10.794;2022-12-01T02:27:48;2.30;99.90
60868;DHT22;46702;48.370;10.794;2022-12-01T02:30:46;2.30;99.90
60868;DHT22;46702;48.370;10.794;2022-12-01T02:33:36;2.30;99.90
60868;DHT22;46702;48.370;10.794;2022-12-01T02:36:31;2.30;99.90
60868;DHT22;46702;48.370;10.794;2022-12-01T02:39:01;2.30;99.90
60868;DHT22;46702;48.370;10.794;2022-12-01T02:41:41;2.30;99.90
60868;DHT22;46702;48.370;10.794;2022-12-01T02:47:32;2.30;99.90
60868;DHT22;46702;48.370;10.794;2022-12-01T02:50:00;2.30;99.90
60868;DHT22;46702;48.370;10.794;2022-12-01T02:52:27;2.30;99.90
60868;DHT22;46702;48.370;10.794;2022-12-01T02:54:54;2.30;99.90
60868;DHT22;46702;48.370;10.794;2022-12-01T02:57:20;2.30;99.90
60868;DHT22;46702;48.370;10.794;2022-12-01T02:59:50;2.30;99.90
60868;DHT22;46702;48.370;10.794;2022-12-01T03:05:20;2.30;99.90
60868;DHT22;46702;48.370;10.794;2022-12-01T03:10:52;2.30;99.90
60868;DHT22;46702;48.370;10.794;2022-12-01T03:13:42;2.30;99.90
60868;DHT22;46702;48.370;10.794;2022-12-01T03:16:55;2.30;99.90
60868;DHT22;46702;48.370;10.794;2022-12-01T03:21:55;2.30;99.90
60868;DHT22;46702;48.370;10.794;2022-12-01T03:24:25;2.30;99.90
60868;DHT22;46702;48.370;10.794;2022-12-01T03:26:56;2.30;99.90
60868;DHT22;46702;48.370;10.794;2022-12-01T03:29:29;2.30;99.90
60868;DHT22;46702;48.370;10.794;2022-12-01T03:32:03;2.40;99.90
60868;DHT22;46702;48.370;10.794;2022-12-01T03:37:25;2.40;99.90
60868;DHT22;46702;48.370;10.794;2022-12-01T03:39:54;2.30;99.90
60868;DHT22;46702;48.370;10.794;2022-12-01T03:42:25;2.40;99.90
60868;DHT22;46702;48.370;10.794;2022-12-01T03:44:55;2.40;99.90
60868;DHT22;46702;48.370;10.794;2022-12-01T03:47:27;2.40;99.90
60868;DHT22;46702;48.370;10.794;2022-12-01T03:49:55;2.30;99.90
60868;DHT22;46702;48.370;10.794;2022-12-01T03:57:30;2.30;99.90
60868;DHT22;46702;48.370;10.794;2022-12-01T03:59:58;2.30;99.90
60868;DHT22;46702;48.370;10.794;2022-12-01T04:02:26;2.30;99.90
60868;DHT22;46702;48.370;10.794;2022-12-01T04:04:52;2.30;99.90
60868;DHT22;46702;48.370;10.794;2022-12-01T04:07:19;2.30;99.90
60868;DHT22;46702;48.370;10.794;2022-12-01T04:09:44;2.30;99.90
60868;DHT22;46702;48.370;10.794;2022-12-01T04:12:12;2.30;99.90
60868;DHT22;46702;48.370;10.794;2022-12-01T04:15:27;2.30;99.90
60868;DHT22;46702;48.370;10.794;2022-12-01T04:17:46;2.30;99.90
60868;DHT22;46702;48.370;10.794;2022-12-01T04:20:13;2.30;99.90
60868;DHT22;46702;48.370;10.794;2022-12-01T04:22:39;2.30;99.90
60868;DHT22;46702;48.370;10.794;2022-12-01T04:25:06;2.30;99.90
60868;DHT22;46702;48.370;10.794;2022-12-01T04:27:32;2.30;99.90
60868;DHT22;46702;48.370;10.794;2022-12-01T04:29:58;2.30;99.90
60868;DHT22;46702;48.370;10.794;2022-12-01T04:32:24;2.30;99.90
60868;DHT22;46702;48.370;10.794;2022-12-01T04:34:50;2.30;99.90
60868;DHT22;46702;48.370;10.794;2022-12-01T04:37:16;2.30;99.90
60868;DHT22;46702;48.370;10.794;2022-12-01T04:39:42;2.30;99.90
60868;DHT22;46702;48.370;10.794;2022-12-01T04:42:08;2.30;99.90
60868;DHT22;46702;48.370;10.794;2022-12-01T04:44:34;2.30;99.90
60868;DHT22;46702;48.370;10.794;2022-12-01T04:46:59;2.30;99.90
60868;DHT22;46702;48.370;10.794;2022-12-01T04:49:25;2.30;99.90
60868;DHT22;46702;48.370;10.794;2022-12-01T04:51:51;2.30;99.90
60868;DHT22;46702;48.370;10.794;2022-12-01T04:54:17;2.30;99.90
60868;DHT22;46702;48.370;10.794;2022-12-01T04:56:42;2.30;99.90
60868;DHT22;46702;48.370;10.794;2022-12-01T04:59:08;2.30;99.90
60868;DHT22;46702;48.370;10.794;2022-12-01T05:01:34;2.30;99.90
60868;DHT22;46702;48.370;10.794;2022-12-01T05:04:00;2.30;99.90
60868;DHT22;46702;48.370;10.794;2022-12-01T05:06:27;2.30;99.90
60868;DHT22;46702;48.370;10.794;2022-12-01T05:08:58;2.30;99.90
60868;DHT22;46702;48.370;10.794;2022-12-01T05:11:25;2.30;99.90
60868;DHT22;46702;48.370;10.794;2022-12-01T05:13:51;2.30;99.90
60868;DHT22;46702;48.370;10.794;2022-12-01T05:16:22;2.30;99.90
60868;DHT22;46702;48.370;10.794;2022-12-01T05:18:50;2.30;99.90
60868;DHT22;46702;48.370;10.794;2022-12-01T05:21:16;2.30;99.90
60868;DHT22;46702;48.370;10.794;2022-12-01T05:23:42;2.30;99.90
60868;DHT22;46702;48.370;10.794;2022-12-01T05:26:10;2.30;99.90
60868;DHT22;46702;48.370;10.794;2022-12-01T05:28:36;2.30;99.90
60868;DHT22;46702;48.370;10.794;2022-12-01T05:31:02;2.30;99.90
60868;DHT22;46702;48.370;10.794;2022-12-01T05:33:28;2.30;99.90
60868;DHT22;46702;48.370;10.794;2022-12-01T05:35:54;2.30;99.90
60868;DHT22;46702;48.370;10.794;2022-12-01T05:38:20;2.30;99.90
60868;DHT22;46702;48.370;10.794;2022-12-01T05:40:53;2.30;99.90
60868;DHT22;46702;48.370;10.794;2022-12-01T05:43:20;2.30;99.90
60868;DHT22;46702;48.370;10.794;2022-12-01T05:45:46;2.40;99.90
60868;DHT22;46702;48.370;10.794;2022-12-01T05:48:11;2.30;99.90
60868;DHT22;46702;48.370;10.794;2022-12-01T05:50:38;2.30;99.90
60868;DHT22;46702;48.370;10.794;2022-12-01T05:53:04;2.40;99.90
60868;DHT22;46702;48.370;10.794;2022-12-01T05:55:32;2.40;99.90
60868;DHT22;46702;48.370;10.794;2022-12-01T05:57:58;2.40;99.90
60868;DHT22;46702;48.370;10.794;2022-12-01T06:00:24;2.40;99.90
60868;DHT22;46702;48.370;10.794;2022-12-01T06:02:49;2.40;99.90
60868;DHT22;46702;48.370;10.794;2022-12-01T06:05:15;2.30;99.90
60868;DHT22;46702;48.370;10.794;2022-12-01T06:07:41;2.40;99.90
60868;DHT22;46702;48.370;10.794;2022-12-01T06:10:07;2.40;99.90
60868;DHT22;46702;48.370;10.794;2022-12-01T06:12:34;2.30;99.90
60868;DHT22;46702;48.370;10.794;2022-12-01T06:15:00;2.40;99.90
60868;DHT22;46702;48.370;10.794;2022-12-01T06:17:25;2.40;99.90
60868;DHT22;46702;48.370;10.794;2022-12-01T06:19:51;2.40;99.90
60868;DHT22;46702;48.370;10.794;2022-12-01T06:22:16;2.40;99.90
60868;DHT22;46702;48.370;10.794;2022-12-01T06:24:42;2.40;99.90
60868;DHT22;46702;48.370;10.794;2022-12-01T06:27:07;2.40;99.90
60868;DHT22;46702;48.370;10.794;2022-12-01T06:29:33;2.40;99.90
60868;DHT22;46702;48.370;10.794;2022-12-01T06:31:58;2.40;99.90
60868;DHT22;46702;48.370;10.794;2022-12-01T06:34:24;2.40;99.90
60868;DHT22;46702;48.370;10.794;2022-12-01T06:36:49;2.40;99.90
60868;DHT22;46702;48.370;10.794;2022-12-01T06:39:15;2.40;99.90
60868;DHT22;46702;48.370;10.794;2022-12-01T06:41:41;2.40;99.90
60868;DHT22;46702;48.370;10.794;2022-12-01T06:44:08;2.50;99.90
60868;DHT22;46702;48.370;10.794;2022-12-01T06:46:34;2.50;99.90
60868;DHT22;46702;48.370;10.794;2022-12-01T06:48:59;2.50;99.90
60868;DHT22;46702;48.370;10.794;2022-12-01T06:51:25;2.50;99.90
60868;DHT22;46702;48.370;10.794;2022-12-01T06:53:54;2.50;99.90
60868;DHT22;46702;48.370;10.794;2022-12-01T06:56:20;2.50;99.90
60868;DHT22;46702;48.370;10.794;2022-12-01T06:58:48;2.50;99.90
60868;DHT22;46702;48.370;10.794;2022-12-01T07:01:15;2.40;99.90
60868;DHT22;46702;48.370;10.794;2022-12-01T07:03:41;2.50;99.90
60868;DHT22;46702;48.370;10.794;2022-12-01T07:06:08;2.50;99.90
60868;DHT22;46702;48.370;10.794;2022-12-01T07:08:34;2.50;99.90
60868;DHT22;46702;48.370;10.794;2022-12-01T07:11:10;2.50;99.90
60868;DHT22;46702;48.370;10.794;2022-12-01T07:13:40;2.50;99.90
60868;DHT22;46702;48.370;10.794;2022-12-01T07:16:06;2.50;99.90
60868;DHT22;46702;48.370;10.794;2022-12-01T07:18:33;2.50;99.90
60868;DHT22;46702;48.370;10.794;2022-12-01T07:21:04;2.50;99.90
60868;DHT22;46702;48.370;10.794;2022-12-01T07:23:31;2.50;99.90
60868;DHT22;46702;48.370;10.794;2022-12-01T07:26:02;2.50;99.90
60868;DHT22;46702;48.370;10.794;2022-12-01T07:28:28;2.50;99.90
60868;DHT22;46702;48.370;10.794;2022-12-01T07:31:03;2.50;99.90
60868;DHT22;46702;48.370;10.794;2022-12-01T07:33:30;2.50;99.90
60868;DHT22;46702;48.370;10.794;2022-12-01T07:35:55;2.50;99.90
60868;DHT22;46702;48.370;10.794;2022-12-01T07:38:21;2.60;99.90
60868;DHT22;46702;48.370;10.794;2022-12-01T07:40:46;2.60;99.90
60868;DHT22;46702;48.370;10.794;2022-12-01T07:43:12;2.60;99.90
60868;DHT22;46702;48.370;10.794;2022-12-01T07:45:37;2.60;99.90
60868;DHT22;46702;48.370;10.794;2022-12-01T07:48:03;2.60;99.90
60868;DHT22;46702;48.370;10.794;2022-12-01T07:50:29;2.60;99.90
60868;DHT22;46702;48.370;10.794;2022-12-01T07:52:54;2.60;99.90
60868;DHT22;46702;48.370;10.794;2022-12-01T07:55:20;2.60;99.90
60868;DHT22;46702;48.370;10.794;2022-12-01T07:57:45;2.60;99.90
60868;DHT22;46702;48.370;10.794;2022-12-01T08:00:11;2.60;99.90
60868;DHT22;46702;48.370;10.794;2022-12-01T08:02:37;2.60;99.90
60868;DHT22;46702;48.370;10.794;2022-12-01T08:05:03;2.60;99.90
60868;DHT22;46702;48.370;10.794;2022-12-01T08:07:29;2.70;99.90
60868;DHT22;46702;48.370;10.794;2022-12-01T08:09:54;2.70;99.90
60868;DHT22;46702;48.370;10.794;2022-12-01T08:12:20;2.70;99.90
60868;DHT22;46702;48.370;10.794;2022-12-01T08:14:45;2.70;99.90
60868;DHT22;46702;48.370;10.794;2022-12-01T08:17:11;2.70;99.90
60868;DHT22;46702;48.370;10.794;2022-12-01T08:19:36;2.70;99.90
60868;DHT22;46702;48.370;10.794;2022-12-01T08:22:02;2.80;99.90
60868;DHT22;46702;48.370;10.794;2022-12-01T08:24:28;2.80;99.90
60868;DHT22;46702;48.370;10.794;2022-12-01T08:26:53;2.80;99.90
60868;DHT22;46702;48.370;10.794;2022-12-01T08:29:19;2.80;99.90
60868;DHT22;46702;48.370;10.794;2022-12-01T08:31:44;2.80;99.90
60868;DHT22;46702;48.370;10.794;2022-12-01T08:34:10;2.90;99.90
60868;DHT22;46702;48.370;10.794;2022-12-01T08:36:35;2.90;99.90
60868;DHT22;46702;48.370;10.794;2022-12-01T08:39:02;2.90;99.90
60868;DHT22;46702;48.370;10.794;2022-12-01T08:41:28;2.90;99.90
60868;DHT22;46702;48.370;10.794;2022-12-01T08:43:54;2.90;99.90
60868;DHT22;46702;48.370;10.794;2022-12-01T08:46:20;2.90;99.90
60868;DHT22;46702;48.370;10.794;2022-12-01T08:48:46;2.90;99.90
60868;DHT22;46702;48.370;10.794;2022-12-01T08:51:14;2.90;99.90
60868;DHT22;46702;48.370;10.794;2022-12-01T08:53:42;2.90;99.90
60868;DHT22;46702;48.370;10.794;2022-12-01T08:56:35;2.90;99.90
60868;DHT22;46702;48.370;10.794;2022-12-01T08:59:01;2.90;99.90
60868;DHT22;46702;48.370;10.794;2022-12-01T09:01:27;2.90;99.90
60868;DHT22;46702;48.370;10.794;2022-12-01T09:03:55;2.90;99.90
60868;DHT22;46702;48.370;10.794;2022-12-01T09:06:37;2.90;99.90
60868;DHT22;46702;48.370;10.794;2022-12-01T09:09:04;2.90;99.90
60868;DHT22;46702;48.370;10.794;2022-12-01T09:11:29;2.90;99.90
60868;DHT22;46702;48.370;10.794;2022-12-01T09:13:55;2.90;99.90
60868;DHT22;46702;48.370;10.794;2022-12-01T09:16:20;2.90;99.90
60868;DHT22;46702;48.370;10.794;2022-12-01T09:18:46;2.90;99.90
60868;DHT22;46702;48.370;10.794;2022-12-01T09:21:21;2.90;99.90
60868;DHT22;46702;48.370;10.794;2022-12-01T09:23:47;2.90;99.90
60868;DHT22;46702;48.370;10.794;2022-12-01T09:26:14;2.90;99.90
60868;DHT22;46702;48.370;10.794;2022-12-01T09:28:47;2.90;99.90
60868;DHT22;46702;48.370;10.794;2022-12-01T09:31:14;3.00;99.90
60868;DHT22;46702;48.370;10.794;2022-12-01T09:33:41;3.00;99.90
60868;DHT22;46702;48.370;10.794;2022-12-01T09:36:07;2.90;99.90
60868;DHT22;46702;48.370;10.794;2022-12-01T09:38:34;2.90;99.90
60868;DHT22;46702;48.370;10.794;2022-12-01T09:41:04;3.00;99.90
60868;DHT22;46702;48.370;10.794;2022-12-01T09:43:45;3.00;99.90
60868;DHT22;46702;48.370;10.794;2022-12-01T09:46:25;3.00;99.90
60868;DHT22;46702;48.370;10.794;2022-12-01T09:48:53;3.00;99.90
60868;DHT22;46702;48.370;10.794;2022-12-01T09:51:20;3.00;99.90
60868;DHT22;46702;48.370;10.794;2022-12-01T09:53:53;3.00;99.90
60868;DHT22;46702;48.370;10.794;2022-12-01T09:56:21;3.00;99.90
60868;DHT22;46702;48.370;10.794;2022-12-01T09:58:53;3.00;99.90
60868;DHT22;46702;48.370;10.794;2022-12-01T10:01:25;3.00;99.90
60868;DHT22;46702;48.370;10.794;2022-12-01T10:03:58;3.00;99.90
60868;DHT22;46702;48.370;10.794;2022-12-01T10:07:04;3.00;99.90
60868;DHT22;46702;48.370;10.794;2022-12-01T10:09:57;3.00;99.90
60868;DHT22;46702;48.370;10.794;2022-12-01T10:12:24;2.90;99.90
60868;DHT22;46702;48.370;10.794;2022-12-01T10:24:26;2.90;99.90
60868;DHT22;46702;48.370;10.794;2022-12-01T10:29:48;3.00;99.90
60868;DHT22;46702;48.370;10.794;2022-12-01T10:32:49;3.00;99.90
60868;DHT22;46702;48.370;10.794;2022-12-01T10:35:18;3.00;99.90
60868;DHT22;46702;48.370;10.794;2022-12-01T10:37:45;3.00;99.90
60868;DHT22;46702;48.370;10.794;2022-12-01T10:40:13;3.10;99.90
60868;DHT22;46702;48.370;10.794;2022-12-01T10:42:44;3.10;99.90
60868;DHT22;46702;48.370;10.794;2022-12-01T10:45:19;3.10;99.90
60868;DHT22;46702;48.370;10.794;2022-12-01T10:50:37;3.10;99.90
60868;DHT22;46702;48.370;10.794;2022-12-01T10:53:03;3.10;99.90
60868;DHT22;46702;48.370;10.794;2022-12-01T10:55:35;3.20;99.90
60868;DHT22;46702;48.370;10.794;2022-12-01T10:58:11;3.20;99.90
60868;DHT22;46702;48.370;10.794;2022-12-01T11:00:39;3.20;99.90
60868;DHT22;46702;48.370;10.794;2022-12-01T11:03:05;3.20;99.90
60868;DHT22;46702;48.370;10.794;2022-12-01T11:05:39;3.20;99.90
60868;DHT22;46702;48.370;10.794;2022-12-01T11:08:35;3.10;99.90
60868;DHT22;46702;48.370;10.794;2022-12-01T11:11:03;3.20;99.90
60868;DHT22;46702;48.370;10.794;2022-12-01T11:13:34;3.30;99.90
60868;DHT22;46702;48.370;10.794;2022-12-01T11:16:03;3.30;99.90
60868;DHT22;46702;48.370;10.794;2022-12-01T11:18:35;3.30;99.90
60868;DHT22;46702;48.370;10.794;2022-12-01T11:21:24;3.30;99.90
60868;DHT22;46702;48.370;10.794;2022-12-01T11:23:52;3.30;99.90
60868;DHT22;46702;48.370;10.794;2022-12-01T11:26:24;3.30;99.90
60868;DHT22;46702;48.370;10.794;2022-12-01T11:29:02;3.30;99.90
60868;DHT22;46702;48.370;10.794;2022-12-01T11:31:38;3.30;99.90
60868;DHT22;46702;48.370;10.794;2022-12-01T11:34:19;3.40;99.90
60868;DHT22;46702;48.370;10.794;2022-12-01T11:36:49;3.40;99.90
60868;DHT22;46702;48.370;10.794;2022-12-01T11:39:37;3.40;99.90
60868;DHT22;46702;48.370;10.794;2022-12-01T11:42:23;3.40;99.90
60868;DHT22;46702;48.370;10.794;2022-12-01T11:44:52;3.40;99.90
60868;DHT22;46702;48.370;10.794;2022-12-01T11:47:21;3.40;99.90
60868;DHT22;46702;48.370;10.794;2022-12-01T11:49:51;3.40;99.90
60868;DHT22;46702;48.370;10.794;2022-12-01T11:52:32;3.40;99.90
60868;DHT22;46702;48.370;10.794;2022-12-01T11:57:42;3.40;99.90
60868;DHT22;46702;48.370;10.794;2022-12-01T12:00:49;3.40;99.90
60868;DHT22;46702;48.370;10.794;2022-12-01T12:03:33;3.50;99.90
60868;DHT22;46702;48.370;10.794;2022-12-01T12:06:17;3.50;99.90
60868;DHT22;46702;48.370;10.794;2022-12-01T12:09:15;3.50;99.90
60868;DHT22;46702;48.370;10.794;2022-12-01T12:12:01;3.50;99.90
60868;DHT22;46702;48.370;10.794;2022-12-01T12:22:37;3.60;99.90
60868;DHT22;46702;48.370;10.794;2022-12-01T12:25:26;3.60;99.90
60868;DHT22;46702;48.370;10.794;2022-12-01T12:30:53;3.60;99.90
60868;DHT22;46702;48.370;10.794;2022-12-01T12:36:10;3.60;99.90
60868;DHT22;46702;48.370;10.794;2022-12-01T12:38:53;3.60;99.90
60868;DHT22;46702;48.370;10.794;2022-12-01T12:41:41;3.50;99.90
60868;DHT22;46702;48.370;10.794;2022-12-01T12:50:16;3.60;99.90
60868;DHT22;46702;48.370;10.794;2022-12-01T12:52:50;3.70;99.90
60868;DHT22;46702;48.370;10.794;2022-12-01T12:55:27;3.60;99.90
60868;DHT22;46702;48.370;10.794;2022-12-01T13:00:32;3.70;99.90
60868;DHT22;46702;48.370;10.794;2022-12-01T13:06:09;3.70;99.90
60868;DHT22;46702;48.370;10.794;2022-12-01T13:08:41;3.70;99.90
60868;DHT22;46702;48.370;10.794;2022-12-01T13:11:26;3.70;99.90
60868;DHT22;46702;48.370;10.794;2022-12-01T13:13:59;3.70;99.90
60868;DHT22;46702;48.370;10.794;2022-12-01T13:16:35;3.70;99.90
60868;DHT22;46702;48.370;10.794;2022-12-01T13:19:15;3.70;99.90
60868;DHT22;46702;48.370;10.794;2022-12-01T13:21:44;3.80;99.90
60868;DHT22;46702;48.370;10.794;2022-12-01T13:24:20;3.80;99.90
60868;DHT22;46702;48.370;10.794;2022-12-01T13:26:50;3.90;99.90
60868;DHT22;46702;48.370;10.794;2022-12-01T13:29:20;3.90;99.90
60868;DHT22;46702;48.370;10.794;2022-12-01T13:31:48;3.80;99.90
60868;DHT22;46702;48.370;10.794;2022-12-01T13:34:33;3.80;99.90
60868;DHT22;46702;48.370;10.794;2022-12-01T13:37:00;3.70;99.90
60868;DHT22;46702;48.370;10.794;2022-12-01T13:39:30;3.70;99.90
60868;DHT22;46702;48.370;10.794;2022-12-01T13:42:06;3.70;99.90
60868;DHT22;46702;48.370;10.794;2022-12-01T13:44:44;3.70;99.90
60868;DHT22;46702;48.370;10.794;2022-12-01T13:49:48;3.70;99.90
60868;DHT22;46702;48.370;10.794;2022-12-01T13:57:48;3.70;99.90
60868;DHT22;46702;48.370;10.794;2022-12-01T14:00:30;3.80;99.90
60868;DHT22;46702;48.370;10.794;2022-12-01T14:03:34;3.80;99.90
60868;DHT22;46702;48.370;10.794;2022-12-01T14:06:18;3.80;99.90
60868;DHT22;46702;48.370;10.794;2022-12-01T14:08:46;3.80;99.90
60868;DHT22;46702;48.370;10.794;2022-12-01T14:11:24;3.80;99.90
60868;DHT22;46702;48.370;10.794;2022-12-01T14:16:46;3.80;99.90
60868;DHT22;46702;48.370;10.794;2022-12-01T14:19:44;3.80;99.90
60868;DHT22;46702;48.370;10.794;2022-12-01T14:22:34;3.90;99.90
60868;DHT22;46702;48.370;10.794;2022-12-01T14:25:03;3.90;99.90
60868;DHT22;46702;48.370;10.794;2022-12-01T14:27:41;4.00;99.90
60868;DHT22;46702;48.370;10.794;2022-12-01T14:33:42;4.10;99.90
60868;DHT22;46702;48.370;10.794;2022-12-01T14:36:31;4.10;99.90
60868;DHT22;46702;48.370;10.794;2022-12-01T14:41:26;4.10;99.90
60868;DHT22;46702;48.370;10.794;2022-12-01T14:44:04;4.20;99.90
60868;DHT22;46702;48.370;10.794;2022-12-01T14:46:51;4.00;99.90
60868;DHT22;46702;48.370;10.794;2022-12-01T14:50:10;3.90;99.90
60868;DHT22;46702;48.370;10.794;2022-12-01T14:54:56;3.90;99.90
60868;DHT22;46702;48.370;10.794;2022-12-01T14:57:28;3.90;99.90
60868;DHT22;46702;48.370;10.794;2022-12-01T15:00:06;4.00;99.90
60868;DHT22;46702;48.370;10.794;2022-12-01T15:02:32;4.00;99.90
60868;DHT22;46702;48.370;10.794;2022-12-01T15:07:42;3.90;99.90
60868;DHT22;46702;48.370;10.794;2022-12-01T15:10:37;3.90;99.90
60868;DHT22;46702;48.370;10.794;2022-12-01T15:13:43;4.00;99.90
60868;DHT22;46702;48.370;10.794;2022-12-01T15:16:15;3.90;99.90
60868;DHT22;46702;48.370;10.794;2022-12-01T15:18:41;3.90;99.90
60868;DHT22;46702;48.370;10.794;2022-12-01T15:23:36;3.80;99.90
60868;DHT22;46702;48.370;10.794;2022-12-01T15:26:18;3.90;99.90
60868;DHT22;46702;48.370;10.794;2022-12-01T15:28:45;3.90;99.90
60868;DHT22;46702;48.370;10.794;2022-12-01T15:31:12;3.90;99.90
60868;DHT22;46702;48.370;10.794;2022-12-01T15:33:45;3.90;99.90
60868;DHT22;46702;48.370;10.794;2022-12-01T15:36:11;3.80;99.90
60868;DHT22;46702;48.370;10.794;2022-12-01T15:38:40;3.70;99.90
60868;DHT22;46702;48.370;10.794;2022-12-01T15:41:15;3.70;99.90
60868;DHT22;46702;48.370;10.794;2022-12-01T15:43:41;3.80;99.90
60868;DHT22;46702;48.370;10.794;2022-12-01T15:46:15;3.90;99.90
60868;DHT22;46702;48.370;10.794;2022-12-01T15:48:42;3.90;99.90
60868;DHT22;46702;48.370;10.794;2022-12-01T15:51:28;3.90;99.90
60868;DHT22;46702;48.370;10.794;2022-12-01T15:53:58;3.90;99.90
60868;DHT22;46702;48.370;10.794;2022-12-01T15:59:08;3.90;99.90
60868;DHT22;46702;48.370;10.794;2022-12-01T16:01:41;3.90;99.90
60868;DHT22;46702;48.370;10.794;2022-12-01T16:04:25;3.90;99.90
60868;DHT22;46702;48.370;10.794;2022-12-01T16:09:27;3.90;99.90
60868;DHT22;46702;48.370;10.794;2022-12-01T16:14:51;3.80;99.90
60868;DHT22;46702;48.370;10.794;2022-12-01T16:17:17;3.80;99.90
60868;DHT22;46702;48.370;10.794;2022-12-01T16:19:43;3.80;99.90
60868;DHT22;46702;48.370;10.794;2022-12-01T16:24:50;3.70;99.90
60868;DHT22;46702;48.370;10.794;2022-12-01T16:29:57;3.70;99.90
60868;DHT22;46702;48.370;10.794;2022-12-01T16:34:58;3.80;99.90
60868;DHT22;46702;48.370;10.794;2022-12-01T16:37:25;3.80;99.90
60868;DHT22;46702;48.370;10.794;2022-12-01T16:39:51;3.80;99.90
60868;DHT22;46702;48.370;10.794;2022-12-01T16:42:18;3.70;99.90
60868;DHT22;46702;48.370;10.794;2022-12-01T16:44:46;3.70;99.90
60868;DHT22;46702;48.370;10.794;2022-12-01T16:47:23;3.80;99.90
60868;DHT22;46702;48.370;10.794;2022-12-01T16:49:50;3.80;99.90
60868;DHT22;46702;48.370;10.794;2022-12-01T16:52:16;3.90;99.90
60868;DHT22;46702;48.370;10.794;2022-12-01T16:54:42;3.90;99.90
60868;DHT22;46702;48.370;10.794;2022-12-01T16:57:08;3.90;99.90
60868;DHT22;46702;48.370;10.794;2022-12-01T16:59:34;3.90;99.90
60868;DHT22;46702;48.370;10.794;2022-12-01T17:02:00;3.90;99.90
60868;DHT22;46702;48.370;10.794;2022-12-01T17:04:26;3.90;99.90
60868;DHT22;46702;48.370;10.794;2022-12-01T17:06:52;3.90;99.90
60868;DHT22;46702;48.370;10.794;2022-12-01T17:09:18;3.80;99.90
60868;DHT22;46702;48.370;10.794;2022-12-01T17:11:44;3.80;99.90
60868;DHT22;46702;48.370;10.794;2022-12-01T17:14:09;3.80;99.90
60868;DHT22;46702;48.370;10.794;2022-12-01T17:16:35;3.70;99.90
60868;DHT22;46702;48.370;10.794;2022-12-01T17:19:01;3.70;99.90
60868;DHT22;46702;48.370;10.794;2022-12-01T17:21:28;3.70;99.90
60868;DHT22;46702;48.370;10.794;2022-12-01T17:23:53;3.70;99.90
60868;DHT22;46702;48.370;10.794;2022-12-01T17:26:20;3.70;99.90
60868;DHT22;46702;48.370;10.794;2022-12-01T17:28:45;3.70;99.90
60868;DHT22;46702;48.370;10.794;2022-12-01T17:31:11;3.70;99.90
60868;DHT22;46702;48.370;10.794;2022-12-01T17:33:37;3.70;99.90
60868;DHT22;46702;48.370;10.794;2022-12-01T17:36:14;3.80;99.90
60868;DHT22;46702;48.370;10.794;2022-12-01T17:38:42;3.80;99.90
60868;DHT22;46702;48.370;10.794;2022-12-01T17:41:12;3.80;99.90
60868;DHT22;46702;48.370;10.794;2022-12-01T17:43:38;3.80;99.90
60868;DHT22;46702;48.370;10.794;2022-12-01T17:46:05;3.80;99.90
60868;DHT22;46702;48.370;10.794;2022-12-01T17:48:35;3.80;99.90
60868;DHT22;46702;48.370;10.794;2022-12-01T17:51:01;3.80;99.90
60868;DHT22;46702;48.370;10.794;2022-12-01T17:53:27;3.70;99.90